createdAt,value
2019-06-10T00:02:26.543Z,84.37
2019-06-10T00:04:57.880Z,85.21
2019-06-10T00:07:31.462Z,85.62
2019-06-10T00:10:04.080Z,86.54
2019-06-10T00:12:35.793Z,87.19
2019-06-10T00:15:10.974Z,87.19
2019-06-10T00:17:53.130Z,87.58
2019-06-10T00:20:15.407Z,88.15
2019-06-10T00:22:46.827Z,87.62
2019-06-10T00:25:20.844Z,87.78
2019-06-10T00:27:51.445Z,87.72
2019-06-10T00:30:22.856Z,87.94
2019-06-10T00:32:54.181Z,86.83
2019-06-10T00:35:25.646Z,87.61
2019-06-10T00:37:57.014Z,88.06
2019-06-10T00:40:28.364Z,88.40
2019-06-10T00:43:03.534Z,87.62
2019-06-10T00:45:33.750Z,87.54
2019-06-10T00:48:17.310Z,87.89
2019-06-10T00:50:41.384Z,87.40
2019-06-10T00:53:14.374Z,88.38
2019-06-10T00:55:45.522Z,88.95
2019-06-10T00:58:16.892Z,88.96
2019-06-10T01:00:48.349Z,88.09
2019-06-10T01:03:20.890Z,88.46
2019-06-10T01:05:52.633Z,88.73
2019-06-10T01:08:24.199Z,88.72
2019-06-10T01:10:55.682Z,87.71
2019-06-10T01:13:27.021Z,88.54
2019-06-10T01:15:58.528Z,88.52
2019-06-10T01:18:37.556Z,88.62
2019-06-10T01:21:03.864Z,88.73
2019-06-10T01:23:35.392Z,88.72
2019-06-10T01:26:07.591Z,89.19
2019-06-10T01:28:41.035Z,89.89
2019-06-10T01:31:17.036Z,90.18
2019-06-10T01:33:45.104Z,90.64
2019-06-10T01:36:16.650Z,91.27
2019-06-10T01:38:48.039Z,91.36
2019-06-10T01:41:21.340Z,91.39
2019-06-10T01:43:52.445Z,91.28
2019-06-10T01:46:23.993Z,92.09
2019-06-10T01:48:55.362Z,91.71
2019-06-10T01:51:27.113Z,91.88
2019-06-10T01:54:01.176Z,92.29
2019-06-10T01:56:31.622Z,92.25
2019-06-10T01:59:02.967Z,91.47
2019-06-10T02:01:45.229Z,91.75
2019-06-10T02:42:19.038Z,92.56
2019-06-10T02:44:49.774Z,92.53
2019-06-10T02:47:24.642Z,93.20
2019-06-10T02:50:02.464Z,93.92
2019-06-10T02:52:34.163Z,93.50
2019-06-10T02:55:04.162Z,93.84
2019-06-10T05:32:43.206Z,90.87
2019-06-10T05:35:14.806Z,90.15
2019-06-10T05:37:46.228Z,91.18
2019-06-10T05:40:17.644Z,91.49
2019-06-10T05:42:49.006Z,90.82
2019-06-10T05:45:23.019Z,90.69
2019-06-10T05:48:03.067Z,89.32
2019-06-10T05:50:35.018Z,89.39
2019-06-10T05:53:07.876Z,90.18
2019-06-10T05:55:42.588Z,88.91
2019-06-10T05:58:12.906Z,88.99
2019-06-10T06:00:44.917Z,89.23
2019-06-10T06:03:16.317Z,89.78
2019-06-10T06:05:47.679Z,88.89
2019-06-10T06:08:19.032Z,88.74
2019-06-10T06:10:52.643Z,87.54
2019-06-10T06:13:23.667Z,87.13
2019-06-10T06:15:54.954Z,85.92
2019-06-10T06:18:26.401Z,86.50
2019-06-10T06:20:57.750Z,86.32
2019-06-10T06:23:29.006Z,88.15
2019-06-10T06:26:00.342Z,88.64
2019-06-10T06:28:34.014Z,85.74
2019-06-10T06:31:04.729Z,84.25
2019-06-10T06:33:38.504Z,83.83
2019-06-10T06:36:09.126Z,84.58
2019-06-10T06:38:40.454Z,82.59
2019-06-10T06:41:13.626Z,84.72
2019-06-10T06:43:45.622Z,83.78
2019-06-10T06:46:18.291Z,82.23
2019-06-10T06:48:49.743Z,78.59
2019-06-10T06:51:35.848Z,77.90
2019-06-10T06:53:56.282Z,78.55
2019-06-10T06:56:34.499Z,77.22
2019-06-10T06:59:03.301Z,77.50
2019-06-10T07:01:37.469Z,76.51
2019-06-10T07:04:08.523Z,76.66
2019-06-10T07:06:43.214Z,77.45
2019-06-10T07:09:17.161Z,77.18
2019-06-10T07:11:49.308Z,77.53
2019-06-10T07:14:23.802Z,79.18
2019-06-10T07:16:55.105Z,81.35
2019-06-10T07:19:27.504Z,80.94
2019-06-10T07:22:11.414Z,81.09
2019-06-10T07:24:34.072Z,81.62
2019-06-10T07:27:05.209Z,80.47
2019-06-10T07:29:38.555Z,80.00
2019-06-10T07:32:12.300Z,80.09
2019-06-10T07:34:46.740Z,78.83
2019-06-10T07:37:16.074Z,79.23
2019-06-10T07:39:47.539Z,78.64
2019-06-10T07:42:18.849Z,78.32
2019-06-10T07:44:50.212Z,77.87
2019-06-10T07:47:23.115Z,79.44
2019-06-10T07:49:54.785Z,79.47
2019-06-10T07:52:26.233Z,79.37
2019-06-10T07:54:57.701Z,78.89
2019-06-10T07:57:29.155Z,77.55
2019-06-10T08:00:03.198Z,77.05
2019-06-10T08:02:39.723Z,79.32
2019-06-10T08:05:12.829Z,78.89
2019-06-10T08:07:47.560Z,78.93
2019-06-10T08:10:19.444Z,78.65
2019-06-10T08:12:52.461Z,80.59
2019-06-10T08:15:24.102Z,77.65
2019-06-10T08:17:55.578Z,77.81
2019-06-10T08:20:45.575Z,77.12
2019-06-10T08:23:20.471Z,77.29
2019-06-10T08:25:57.389Z,77.98
2019-06-10T08:28:26.944Z,78.01
2019-06-10T08:30:59.434Z,78.97
2019-06-10T08:33:33.090Z,79.66
2019-06-10T08:36:04.279Z,79.91
2019-06-10T08:38:36.298Z,80.63
2019-06-10T08:41:12.272Z,78.77
2019-06-10T08:43:45.621Z,81.59
2019-06-10T08:46:18.289Z,81.64
2019-06-10T08:48:49.843Z,78.54
2019-06-10T08:51:23.689Z,79.24
2019-06-10T08:53:54.312Z,81.19
2019-06-10T08:56:25.820Z,80.35
2019-06-10T08:59:03.340Z,82.48
2019-06-10T09:01:34.837Z,80.29
2019-06-10T09:04:06.853Z,79.86
2019-06-10T09:06:39.122Z,79.81
2019-06-10T09:09:12.846Z,79.07
2019-06-10T09:11:47.916Z,75.54
2019-06-10T09:14:17.409Z,74.95
2019-06-10T09:16:49.349Z,73.84
2019-06-10T09:19:22.242Z,70.97
2019-06-10T09:21:56.765Z,71.75
2019-06-10T09:24:32.784Z,68.03
2019-06-10T09:27:04.702Z,68.69
2019-06-10T09:29:36.065Z,66.61
2019-06-10T09:32:12.346Z,71.75
2019-06-10T09:34:47.164Z,69.39
2019-06-10T09:37:15.895Z,69.04
2019-06-10T09:39:53.945Z,68.33
2019-06-10T09:42:23.252Z,66.95
2019-06-10T09:44:55.786Z,65.98
2019-06-10T09:47:27.808Z,64.03
2019-06-10T09:49:59.736Z,64.92
2019-06-10T09:52:32.841Z,64.16
2019-06-10T09:55:06.387Z,64.23
2019-06-10T09:57:37.802Z,67.97
2019-06-10T10:00:13.049Z,63.65
2019-06-10T10:02:47.991Z,60.87
2019-06-10T10:05:23.374Z,60.94
2019-06-10T10:07:57.257Z,61.63
2019-06-10T10:10:37.139Z,59.46
2019-06-10T10:13:09.737Z,58.93
2019-06-10T10:15:41.865Z,62.69
2019-06-10T10:18:14.027Z,59.84
2019-06-10T10:20:48.126Z,59.01
2019-06-10T10:23:18.895Z,60.35
2019-06-10T10:25:56.247Z,60.20
2019-06-10T10:28:26.398Z,61.01
2019-06-10T10:30:58.179Z,58.47
2019-06-10T10:33:32.628Z,58.19
2019-06-10T10:36:02.963Z,57.25
2019-06-10T10:38:34.858Z,60.44
2019-06-10T10:41:09.582Z,58.87
2019-06-10T10:43:43.567Z,61.04
2019-06-10T10:46:14.386Z,63.50
2019-06-10T10:48:46.993Z,61.30
2019-06-10T10:51:18.861Z,62.49
2019-06-10T10:54:15.387Z,62.86
2019-06-10T10:56:24.800Z,62.25
2019-06-10T10:58:58.411Z,62.24
2019-06-10T11:01:29.228Z,61.12
2019-06-10T11:04:03.877Z,63.10
2019-06-10T11:06:33.904Z,64.21
2019-06-10T11:09:08.881Z,62.64
2019-06-10T11:11:44.063Z,63.19
2019-06-10T11:14:15.432Z,63.06
2019-06-10T11:16:47.222Z,60.61
2019-06-10T11:19:18.786Z,61.48
2019-06-10T11:21:51.504Z,61.54
2019-06-10T11:24:33.591Z,61.45
2019-06-10T11:26:56.614Z,59.33
2019-06-10T11:29:28.153Z,61.80
2019-06-10T11:31:59.423Z,60.80
2019-06-10T11:34:33.050Z,59.15
2019-06-10T11:38:03.423Z,57.13
2019-06-10T11:47:38.637Z,58.98
2019-06-10T11:50:39.388Z,60.47
2019-06-10T11:53:15.507Z,61.34
2019-06-10T11:55:56.561Z,61.75
2019-06-10T11:58:42.332Z,62.21
2019-06-10T12:01:15.166Z,63.16
2019-06-10T12:03:54.008Z,62.67
2019-06-10T12:06:33.342Z,64.09
2019-06-10T12:09:13.721Z,64.14
2019-06-10T12:12:06.247Z,64.49
2019-06-10T12:14:55.307Z,65.68
2019-06-10T12:17:42.899Z,64.66
2019-06-10T12:20:13.434Z,65.57
2019-06-10T12:42:38.868Z,67.16
2019-06-10T12:45:35.458Z,67.37
2019-06-10T12:57:39.643Z,67.18
2019-06-10T13:10:46.570Z,70.72
2019-06-10T13:13:18.288Z,69.99
2019-06-10T13:15:53.308Z,70.70
2019-06-10T13:19:15.453Z,71.20
2019-06-10T13:21:57.254Z,72.54
2019-06-10T13:24:29.644Z,72.53
2019-06-10T13:27:06.538Z,73.72
2019-06-10T14:10:32.619Z,80.60
2019-06-10T14:13:09.013Z,81.62
2019-06-10T14:15:42.748Z,81.26
2019-06-10T14:18:15.985Z,79.95
2019-06-10T14:20:47.927Z,82.89
2019-06-10T14:23:22.043Z,80.69
2019-06-10T14:26:02.702Z,81.15
2019-06-10T14:28:40.038Z,81.62
2019-06-10T14:31:27.877Z,80.84
2019-06-10T14:33:39.606Z,82.55
2019-06-10T14:36:16.301Z,81.95
2019-06-10T14:38:44.826Z,81.65
2019-06-10T14:41:16.574Z,81.87
2019-06-10T14:43:49.552Z,81.01
2019-06-10T14:46:23.063Z,79.59
2019-06-10T14:48:54.703Z,81.46
2019-06-10T14:51:26.510Z,82.16
2019-06-10T14:53:59.821Z,79.22
2019-06-10T14:56:33.313Z,79.32
2019-06-10T14:59:05.402Z,80.54
2019-06-10T15:01:37.225Z,80.00
2019-06-10T15:04:10.105Z,81.69
2019-06-10T15:06:43.236Z,80.77
2019-06-10T15:09:15.783Z,81.30
2019-06-10T15:11:52.112Z,80.11
2019-06-10T15:14:25.585Z,80.00
2019-06-10T15:16:57.547Z,79.72
2019-06-10T15:19:33.113Z,80.19
2019-06-10T15:22:04.282Z,79.04
2019-06-10T15:24:36.313Z,79.10
2019-06-10T15:27:15.936Z,79.24
2019-06-10T15:29:43.190Z,78.98
2019-06-10T15:32:27.727Z,77.70
2019-06-10T15:34:49.131Z,78.00
2019-06-10T15:37:23.849Z,80.39
2019-06-10T15:39:56.924Z,79.63
2019-06-10T15:42:28.570Z,79.64
2019-06-10T15:45:19.444Z,79.23
2019-06-10T15:47:53.126Z,78.59
2019-06-10T15:50:27.494Z,79.06
2019-06-10T15:52:58.844Z,79.04
2019-06-10T15:55:55.515Z,79.62
2019-06-10T15:58:07.238Z,78.85
2019-06-10T16:00:42.547Z,81.98
2019-06-10T16:03:17.127Z,80.40
2019-06-10T16:05:48.528Z,80.22
2019-06-10T16:08:20.433Z,79.90
2019-06-10T16:10:52.766Z,80.35
2019-06-10T16:13:26.023Z,79.11
2019-06-10T16:15:57.931Z,78.64
2019-06-10T16:18:29.753Z,78.90
2019-06-10T16:21:04.266Z,79.30
2019-06-10T16:23:35.152Z,79.88
2019-06-10T16:26:06.964Z,80.21
2019-06-10T16:28:38.923Z,81.21
2019-06-10T16:31:21.206Z,81.25
2019-06-10T16:34:04.397Z,80.83
2019-06-10T16:36:44.514Z,80.36
2019-06-10T16:43:13.802Z,80.41
2019-06-10T16:46:03.395Z,80.84
2019-06-10T16:48:33.729Z,80.49
2019-06-10T16:51:25.652Z,80.78
2019-06-10T16:53:59.471Z,81.42
2019-06-10T16:56:33.561Z,81.58
2019-06-10T16:59:05.769Z,82.69
2019-06-10T17:01:42.895Z,82.81
2019-06-10T17:04:23.987Z,83.71
2019-06-10T17:07:02.192Z,84.13
2019-06-10T17:09:29.544Z,85.13
2019-06-10T17:12:02.294Z,85.36
2019-06-10T17:14:33.878Z,82.72
2019-06-10T17:17:14.797Z,83.47
2019-06-10T17:20:08.923Z,84.33
2019-06-10T17:22:43.329Z,84.46
2019-06-10T17:25:14.720Z,83.99
2019-06-10T17:27:49.357Z,83.90
2019-06-10T17:33:36.228Z,83.44
2019-06-10T17:36:03.623Z,82.03
2019-06-10T17:38:42.993Z,81.35
2019-06-10T17:41:15.893Z,82.71
2019-06-10T17:43:54.658Z,83.11
2019-06-10T17:46:28.897Z,82.50
2019-06-10T17:49:02.642Z,82.86
2019-06-10T17:51:37.598Z,82.91
2019-06-10T17:54:09.379Z,83.60
2019-06-10T17:56:42.665Z,83.52
2019-06-10T17:59:14.439Z,83.39
2019-06-10T18:01:48.644Z,83.89
2019-06-10T18:04:22.590Z,83.38
2019-06-10T18:06:54.496Z,84.40
2019-06-10T18:09:27.883Z,84.22
2019-06-10T18:12:02.486Z,84.40
2019-06-10T18:14:36.825Z,84.18
2019-06-10T18:17:08.550Z,84.21
2019-06-10T18:19:43.377Z,84.56
2019-06-10T18:22:17.640Z,85.65
2019-06-10T18:24:52.316Z,86.09
2019-06-10T18:27:25.527Z,85.00
2019-06-10T18:29:57.786Z,86.05
2019-06-10T18:32:32.449Z,85.76
2019-06-10T18:35:03.643Z,85.76
2019-06-10T18:37:37.916Z,85.60
2019-06-10T18:40:14.489Z,85.08
2019-06-10T18:42:45.781Z,85.87
2019-06-10T18:45:19.121Z,86.36
2019-06-10T18:47:52.868Z,85.79
2019-06-10T18:50:26.040Z,86.14
2019-06-10T18:52:59.354Z,86.08
2019-06-10T18:55:35.850Z,85.62
2019-06-10T18:58:07.391Z,85.63
2019-06-10T19:00:53.462Z,86.99
2019-06-10T19:03:16.784Z,86.94
2019-06-10T19:05:47.768Z,88.00
2019-06-10T19:08:22.346Z,87.14
2019-06-10T19:10:54.626Z,87.12
2019-06-10T19:13:29.464Z,87.03
2019-06-10T19:16:02.350Z,87.15
2019-06-10T19:18:38.163Z,88.40
2019-06-10T19:21:09.402Z,87.69
2019-06-10T19:23:43.891Z,88.02
2019-06-10T19:26:16.000Z,88.08
2019-06-10T19:28:53.435Z,88.34
2019-06-10T19:31:23.221Z,88.05
2019-06-10T19:33:54.798Z,88.45
2019-06-10T19:36:26.896Z,89.06
2019-06-10T19:38:58.467Z,89.35
2019-06-10T19:41:32.986Z,89.58
2019-06-10T19:44:03.666Z,89.87
2019-06-10T19:46:35.703Z,90.39
2019-06-10T19:49:07.646Z,90.02
2019-06-10T19:51:39.357Z,90.76
2019-06-10T19:54:12.829Z,90.65
2019-06-10T19:56:44.271Z,91.23
2019-06-10T19:59:15.693Z,91.23
2019-06-10T20:01:48.785Z,91.96
2019-06-10T20:04:22.523Z,91.83
2019-06-10T20:06:53.881Z,92.30
2019-06-10T20:09:26.467Z,92.64
2019-06-10T20:11:57.902Z,91.88
2019-06-10T20:14:29.404Z,91.33
2019-06-10T20:17:03.215Z,92.90
2019-06-10T20:19:34.127Z,92.43
2019-06-10T20:22:05.668Z,92.77
2019-06-10T20:24:38.391Z,92.30
2019-06-10T20:27:10.178Z,91.76
2019-06-10T20:29:42.999Z,93.03
2019-06-10T20:32:14.797Z,92.63
2019-06-10T20:34:46.162Z,91.77
2019-06-10T20:37:17.595Z,92.16
2019-06-10T20:39:50.399Z,92.16
2019-06-10T20:42:23.125Z,92.73
2019-06-10T20:44:54.937Z,92.04
2019-06-10T20:47:59.181Z,92.28
2019-06-10T20:50:32.304Z,91.76
2019-06-10T20:53:14.203Z,91.27
2019-06-10T20:55:41.197Z,91.95
2019-06-10T20:58:12.319Z,92.35
2019-06-10T21:00:51.067Z,91.93
2019-06-10T21:03:16.425Z,92.34
2019-06-10T21:05:50.253Z,91.83
2019-06-10T21:08:22.665Z,92.37
2019-06-10T21:10:54.674Z,91.81
2019-06-10T21:13:26.392Z,91.93
2019-06-10T21:15:59.291Z,91.28
2019-06-10T21:18:32.950Z,92.34
2019-06-10T21:21:04.394Z,91.50
2019-06-10T21:23:36.099Z,92.49
2019-06-10T21:26:07.526Z,92.88
2019-06-10T21:28:38.986Z,93.12
2019-06-10T21:31:10.390Z,93.04
2019-06-10T21:33:44.379Z,93.48
2019-06-10T21:36:14.993Z,93.02
2019-06-10T21:38:48.145Z,93.21
2019-06-10T21:41:19.501Z,93.54
2019-06-10T21:43:57.564Z,93.28
2019-06-10T21:46:23.935Z,93.62
2019-06-10T21:48:55.984Z,93.56
2019-06-10T21:51:27.643Z,93.74
2019-06-10T21:53:59.094Z,93.88
2019-06-10T21:56:32.613Z,93.19
2019-06-10T21:59:03.689Z,93.04
2019-06-10T22:01:35.189Z,93.46
2019-06-10T22:04:06.682Z,93.68
2019-06-10T22:06:38.227Z,93.15
2019-06-10T22:09:09.730Z,93.78
2019-06-10T22:11:42.278Z,94.11
2019-06-10T22:14:15.002Z,94.67
2019-06-10T22:16:46.526Z,94.64
2019-06-10T22:19:17.832Z,94.26
2019-06-10T22:21:49.206Z,94.05
2019-06-10T22:24:22.792Z,94.43
2019-06-10T22:26:55.131Z,95.36
2019-06-10T22:29:26.690Z,96.19
2019-06-10T22:31:58.081Z,95.72
2019-06-10T22:34:29.723Z,95.70
2019-06-10T22:37:03.148Z,95.84
2019-06-10T22:39:34.224Z,97.43
2019-06-10T22:42:05.781Z,97.33
2019-06-10T22:44:37.178Z,97.09
2019-06-10T22:47:08.766Z,96.95
2019-06-10T22:49:40.129Z,97.11
2019-06-10T22:52:12.615Z,96.83
2019-06-10T22:54:49.641Z,96.60
2019-06-10T22:57:22.172Z,95.71
2019-06-10T22:59:57.859Z,97.19
2019-06-10T23:02:33.340Z,97.39
2019-06-10T23:05:13.043Z,98.29
2019-06-10T23:07:44.268Z,98.10
2019-06-10T23:10:15.955Z,98.28
2019-06-10T23:12:48.577Z,98.35
2019-06-10T23:15:23.473Z,97.42
2019-06-10T23:17:59.145Z,98.08
2019-06-10T23:20:33.120Z,98.11
2019-06-10T23:23:04.132Z,98.05
2019-06-10T23:25:35.611Z,97.80
2019-06-10T23:28:07.455Z,97.62
2019-06-10T23:30:38.827Z,97.32
2019-06-10T23:33:12.326Z,97.75
2019-06-10T23:35:47.710Z,98.18
2019-06-10T23:38:20.510Z,98.33
2019-06-10T23:40:54.749Z,98.11
2019-06-10T23:43:26.174Z,98.28
2019-06-10T23:45:57.857Z,99.01
2019-06-10T23:48:32.902Z,98.99
2019-06-10T23:51:05.079Z,98.83
2019-06-10T23:53:40.308Z,98.15
2019-06-10T23:56:12.834Z,99.07
2019-06-10T23:58:47.250Z,98.38
